sensor_id;sensor_type;location;lat;lon;timestamp;temperature;humidity
24262;DHT22;12385;51.412;5.540;2022-07-23T00:01:19;19.00;99.90
24262;DHT22;12385;51.412;5.540;2022-07-23T00:03:45;18.90;99.90
24262;DHT22;12385;51.412;5.540;2022-07-23T00:06:11;18.80;99.90
24262;DHT22;12385;51.412;5.540;2022-07-23T00:08:37;18.70;99.90
24262;DHT22;12385;51.412;5.540;2022-07-23T00:11:02;18.70;99.90
24262;DHT22;12385;51.412;5.540;2022-07-23T00:13:28;18.60;99.90
24262;DHT22;12385;51.412;5.540;2022-07-23T00:15:53;18.60;99.90
24262;DHT22;12385;51.412;5.540;2022-07-23T00:18:19;18.50;99.90
24262;DHT22;12385;51.412;5.540;2022-07-23T00:20:45;18.40;99.90
24262;DHT22;12385;51.412;5.540;2022-07-23T00:23:10;18.40;99.90
24262;DHT22;12385;51.412;5.540;2022-07-23T00:25:36;18.40;99.90
24262;DHT22;12385;51.412;5.540;2022-07-23T00:28:02;18.30;99.90
24262;DHT22;12385;51.412;5.540;2022-07-23T00:30:29;18.30;99.90
24262;DHT22;12385;51.412;5.540;2022-07-23T00:32:57;18.30;99.90
24262;DHT22;12385;51.412;5.540;2022-07-23T00:35:25;18.30;99.90
24262;DHT22;12385;51.412;5.540;2022-07-23T00:37:51;18.20;99.90
24262;DHT22;12385;51.412;5.540;2022-07-23T00:40:17;18.20;99.90
24262;DHT22;12385;51.412;5.540;2022-07-23T00:42:44;18.20;99.90
24262;DHT22;12385;51.412;5.540;2022-07-23T00:45:10;18.20;99.90
24262;DHT22;12385;51.412;5.540;2022-07-23T00:47:36;18.10;99.90
24262;DHT22;12385;51.412;5.540;2022-07-23T00:50:04;18.10;99.90
24262;DHT22;12385;51.412;5.540;2022-07-23T00:52:32;18.00;99.90
24262;DHT22;12385;51.412;5.540;2022-07-23T00:54:57;17.90;99.90
24262;DHT22;12385;51.412;5.540;2022-07-23T00:57:23;17.90;99.90
24262;DHT22;12385;51.412;5.540;2022-07-23T00:59:49;17.90;99.90
24262;DHT22;12385;51.412;5.540;2022-07-23T01:02:15;17.80;99.90
24262;DHT22;12385;51.412;5.540;2022-07-23T01:04:40;17.80;99.90
24262;DHT22;12385;51.412;5.540;2022-07-23T01:07:07;17.70;99.90
24262;DHT22;12385;51.412;5.540;2022-07-23T01:09:33;17.70;99.90
24262;DHT22;12385;51.412;5.540;2022-07-23T01:11:59;17.60;99.90
24262;DHT22;12385;51.412;5.540;2022-07-23T01:14:25;17.50;99.90
24262;DHT22;12385;51.412;5.540;2022-07-23T01:16:52;17.50;99.90
24262;DHT22;12385;51.412;5.540;2022-07-23T01:19:19;17.50;99.90
24262;DHT22;12385;51.412;5.540;2022-07-23T01:21:48;17.40;99.90
24262;DHT22;12385;51.412;5.540;2022-07-23T01:24:14;17.40;99.90
24262;DHT22;12385;51.412;5.540;2022-07-23T01:26:43;17.40;99.90
24262;DHT22;12385;51.412;5.540;2022-07-23T01:29:08;17.30;99.90
24262;DHT22;12385;51.412;5.540;2022-07-23T01:31:34;17.30;99.90
24262;DHT22;12385;51.412;5.540;2022-07-23T01:34:00;17.30;99.90
24262;DHT22;12385;51.412;5.540;2022-07-23T01:36:25;17.20;99.90
24262;DHT22;12385;51.412;5.540;2022-07-23T01:38:51;17.20;99.90
24262;DHT22;12385;51.412;5.540;2022-07-23T01:41:18;17.20;99.90
24262;DHT22;12385;51.412;5.540;2022-07-23T01:43:43;17.20;99.90
24262;DHT22;12385;51.412;5.540;2022-07-23T01:46:09;17.10;99.90
24262;DHT22;12385;51.412;5.540;2022-07-23T01:48:36;17.10;99.90
24262;DHT22;12385;51.412;5.540;2022-07-23T01:51:02;17.10;99.90
24262;DHT22;12385;51.412;5.540;2022-07-23T01:53:28;17.00;99.90
24262;DHT22;12385;51.412;5.540;2022-07-23T01:55:57;17.00;99.90
24262;DHT22;12385;51.412;5.540;2022-07-23T01:58:22;17.00;99.90
24262;DHT22;12385;51.412;5.540;2022-07-23T02:00:48;17.00;99.90
24262;DHT22;12385;51.412;5.540;2022-07-23T02:03:14;17.00;99.90
24262;DHT22;12385;51.412;5.540;2022-07-23T02:05:40;17.00;99.90
24262;DHT22;12385;51.412;5.540;2022-07-23T02:08:06;16.90;99.90
24262;DHT22;12385;51.412;5.540;2022-07-23T02:10:32;17.00;99.90
24262;DHT22;12385;51.412;5.540;2022-07-23T02:12:57;16.90;99.90
24262;DHT22;12385;51.412;5.540;2022-07-23T02:15:24;16.80;99.90
24262;DHT22;12385;51.412;5.540;2022-07-23T02:17:49;16.70;99.90
24262;DHT22;12385;51.412;5.540;2022-07-23T02:20:15;16.70;99.90
24262;DHT22;12385;51.412;5.540;2022-07-23T02:22:42;16.70;99.90
24262;DHT22;12385;51.412;5.540;2022-07-23T02:25:08;16.60;99.90
24262;DHT22;12385;51.412;5.540;2022-07-23T02:27:35;16.60;99.90
24262;DHT22;12385;51.412;5.540;2022-07-23T02:30:04;16.60;99.90
24262;DHT22;12385;51.412;5.540;2022-07-23T02:32:29;16.50;99.90
24262;DHT22;12385;51.412;5.540;2022-07-23T02:34:55;16.50;99.90
24262;DHT22;12385;51.412;5.540;2022-07-23T02:37:24;16.50;99.90
24262;DHT22;12385;51.412;5.540;2022-07-23T02:39:49;16.50;99.90
24262;DHT22;12385;51.412;5.540;2022-07-23T02:42:15;16.40;99.90
24262;DHT22;12385;51.412;5.540;2022-07-23T02:44:42;16.40;99.90
24262;DHT22;12385;51.412;5.540;2022-07-23T02:47:08;16.30;99.90
24262;DHT22;12385;51.412;5.540;2022-07-23T02:49:33;16.30;99.90
24262;DHT22;12385;51.412;5.540;2022-07-23T02:51:59;16.20;99.90
24262;DHT22;12385;51.412;5.540;2022-07-23T02:54:25;16.20;99.90
24262;DHT22;12385;51.412;5.540;2022-07-23T02:56:50;16.10;99.90
24262;DHT22;12385;51.412;5.540;2022-07-23T02:59:18;16.10;99.90
24262;DHT22;12385;51.412;5.540;2022-07-23T03:01:44;16.00;99.90
24262;DHT22;12385;51.412;5.540;2022-07-23T03:04:10;16.00;99.90
24262;DHT22;12385;51.412;5.540;2022-07-23T03:06:36;16.00;99.90
24262;DHT22;12385;51.412;5.540;2022-07-23T03:09:03;16.00;99.90
24262;DHT22;12385;51.412;5.540;2022-07-23T03:11:28;16.00;99.90
24262;DHT22;12385;51.412;5.540;2022-07-23T03:13:54;15.90;99.90
24262;DHT22;12385;51.412;5.540;2022-07-23T03:16:20;15.90;99.90
24262;DHT22;12385;51.412;5.540;2022-07-23T03:18:46;15.90;99.90
24262;DHT22;12385;51.412;5.540;2022-07-23T03:21:11;15.90;99.90
24262;DHT22;12385;51.412;5.540;2022-07-23T03:23:39;15.80;99.90
24262;DHT22;12385;51.412;5.540;2022-07-23T03:26:05;15.90;99.90
24262;DHT22;12385;51.412;5.540;2022-07-23T03:28:30;15.80;99.90
24262;DHT22;12385;51.412;5.540;2022-07-23T03:30:58;15.80;99.90
24262;DHT22;12385;51.412;5.540;2022-07-23T03:33:24;15.80;99.90
24262;DHT22;12385;51.412;5.540;2022-07-23T03:35:49;15.80;99.90
24262;DHT22;12385;51.412;5.540;2022-07-23T03:38:15;15.70;99.90
24262;DHT22;12385;51.412;5.540;2022-07-23T03:40:41;15.70;99.90
24262;DHT22;12385;51.412;5.540;2022-07-23T03:43:07;15.70;99.90
24262;DHT22;12385;51.412;5.540;2022-07-23T03:45:33;15.70;99.90
24262;DHT22;12385;51.412;5.540;2022-07-23T03:47:59;15.60;99.90
24262;DHT22;12385;51.412;5.540;2022-07-23T03:50:25;15.60;99.90
24262;DHT22;12385;51.412;5.540;2022-07-23T03:52:52;15.60;99.90
24262;DHT22;12385;51.412;5.540;2022-07-23T03:55:18;15.60;99.90
24262;DHT22;12385;51.412;5.540;2022-07-23T03:57:43;15.60;99.90
24262;DHT22;12385;51.412;5.540;2022-07-23T04:00:10;15.60;99.90
24262;DHT22;12385;51.412;5.540;2022-07-23T04:02:37;15.60;99.90
24262;DHT22;12385;51.412;5.540;2022-07-23T04:05:03;15.60;99.90
24262;DHT22;12385;51.412;5.540;2022-07-23T04:07:29;15.60;99.90
24262;DHT22;12385;51.412;5.540;2022-07-23T04:09:56;15.50;99.90
24262;DHT22;12385;51.412;5.540;2022-07-23T04:12:22;15.50;99.90
24262;DHT22;12385;51.412;5.540;2022-07-23T04:14:48;15.50;99.90
24262;DHT22;12385;51.412;5.540;2022-07-23T04:17:13;15.50;99.90
24262;DHT22;12385;51.412;5.540;2022-07-23T04:19:39;15.40;99.90
24262;DHT22;12385;51.412;5.540;2022-07-23T04:22:07;15.40;99.90
24262;DHT22;12385;51.412;5.540;2022-07-23T04:24:34;15.40;99.90
24262;DHT22;12385;51.412;5.540;2022-07-23T04:27:00;15.40;99.90
24262;DHT22;12385;51.412;5.540;2022-07-23T04:29:26;15.40;99.90
24262;DHT22;12385;51.412;5.540;2022-07-23T04:31:52;15.40;99.90
24262;DHT22;12385;51.412;5.540;2022-07-23T04:34:17;15.40;99.90
24262;DHT22;12385;51.412;5.540;2022-07-23T04:36:43;15.40;99.90
24262;DHT22;12385;51.412;5.540;2022-07-23T04:39:10;15.40;99.90
24262;DHT22;12385;51.412;5.540;2022-07-23T04:41:36;15.40;99.90
24262;DHT22;12385;51.412;5.540;2022-07-23T04:44:02;15.40;99.90
24262;DHT22;12385;51.412;5.540;2022-07-23T04:46:28;15.40;99.90
24262;DHT22;12385;51.412;5.540;2022-07-23T04:48:54;15.40;99.90
24262;DHT22;12385;51.412;5.540;2022-07-23T04:51:19;15.50;99.90
24262;DHT22;12385;51.412;5.540;2022-07-23T04:53:45;15.50;99.90
24262;DHT22;12385;51.412;5.540;2022-07-23T04:56:11;15.50;99.90
24262;DHT22;12385;51.412;5.540;2022-07-23T04:58:36;15.60;99.90
24262;DHT22;12385;51.412;5.540;2022-07-23T05:01:02;15.70;99.90
24262;DHT22;12385;51.412;5.540;2022-07-23T05:03:28;15.60;99.90
24262;DHT22;12385;51.412;5.540;2022-07-23T05:05:54;15.70;99.90
24262;DHT22;12385;51.412;5.540;2022-07-23T05:08:20;15.70;99.90
24262;DHT22;12385;51.412;5.540;2022-07-23T05:10:46;15.80;99.90
24262;DHT22;12385;51.412;5.540;2022-07-23T05:13:11;15.80;99.90
24262;DHT22;12385;51.412;5.540;2022-07-23T05:15:38;15.90;99.90
24262;DHT22;12385;51.412;5.540;2022-07-23T05:18:03;15.90;99.90
24262;DHT22;12385;51.412;5.540;2022-07-23T05:20:29;16.00;99.90
24262;DHT22;12385;51.412;5.540;2022-07-23T05:22:55;16.00;99.90
24262;DHT22;12385;51.412;5.540;2022-07-23T05:25:20;16.10;99.90
24262;DHT22;12385;51.412;5.540;2022-07-23T05:27:46;16.10;99.90
24262;DHT22;12385;51.412;5.540;2022-07-23T05:30:13;16.10;99.90
24262;DHT22;12385;51.412;5.540;2022-07-23T05:32:38;16.20;99.90
24262;DHT22;12385;51.412;5.540;2022-07-23T05:35:05;16.20;99.90
24262;DHT22;12385;51.412;5.540;2022-07-23T05:37:31;16.30;99.90
24262;DHT22;12385;51.412;5.540;2022-07-23T05:40:07;16.30;99.90
24262;DHT22;12385;51.412;5.540;2022-07-23T05:42:34;16.40;99.90
24262;DHT22;12385;51.412;5.540;2022-07-23T05:44:59;16.40;99.90
24262;DHT22;12385;51.412;5.540;2022-07-23T05:47:26;16.50;99.90
24262;DHT22;12385;51.412;5.540;2022-07-23T05:49:52;16.50;99.90
24262;DHT22;12385;51.412;5.540;2022-07-23T05:52:17;16.60;99.90
24262;DHT22;12385;51.412;5.540;2022-07-23T05:54:43;16.60;99.90
24262;DHT22;12385;51.412;5.540;2022-07-23T05:57:08;16.70;99.90
24262;DHT22;12385;51.412;5.540;2022-07-23T05:59:34;16.70;99.90
24262;DHT22;12385;51.412;5.540;2022-07-23T06:02:00;16.80;99.90
24262;DHT22;12385;51.412;5.540;2022-07-23T06:04:25;16.90;99.90
24262;DHT22;12385;51.412;5.540;2022-07-23T06:06:51;16.90;99.90
24262;DHT22;12385;51.412;5.540;2022-07-23T06:09:17;17.00;99.90
24262;DHT22;12385;51.412;5.540;2022-07-23T06:11:43;17.10;99.90
24262;DHT22;12385;51.412;5.540;2022-07-23T06:14:09;17.10;99.90
24262;DHT22;12385;51.412;5.540;2022-07-23T06:16:34;17.10;99.90
24262;DHT22;12385;51.412;5.540;2022-07-23T06:19:00;17.20;99.90
24262;DHT22;12385;51.412;5.540;2022-07-23T06:21:25;17.20;99.90
24262;DHT22;12385;51.412;5.540;2022-07-23T06:23:51;17.30;99.90
24262;DHT22;12385;51.412;5.540;2022-07-23T06:26:18;17.30;99.90
24262;DHT22;12385;51.412;5.540;2022-07-23T06:28:43;17.30;99.90
24262;DHT22;12385;51.412;5.540;2022-07-23T06:31:09;17.40;99.90
24262;DHT22;12385;51.412;5.540;2022-07-23T06:33:34;17.50;99.90
24262;DHT22;12385;51.412;5.540;2022-07-23T06:36:00;17.60;99.90
24262;DHT22;12385;51.412;5.540;2022-07-23T06:38:26;17.70;99.90
24262;DHT22;12385;51.412;5.540;2022-07-23T06:40:51;17.70;99.90
24262;DHT22;12385;51.412;5.540;2022-07-23T06:43:17;17.80;99.90
24262;DHT22;12385;51.412;5.540;2022-07-23T06:45:44;17.90;99.90
24262;DHT22;12385;51.412;5.540;2022-07-23T06:48:10;17.90;99.90
24262;DHT22;12385;51.412;5.540;2022-07-23T06:50:35;18.00;99.90
24262;DHT22;12385;51.412;5.540;2022-07-23T06:53:03;18.10;99.90
24262;DHT22;12385;51.412;5.540;2022-07-23T06:55:29;18.10;99.90
24262;DHT22;12385;51.412;5.540;2022-07-23T06:57:54;18.20;99.90
24262;DHT22;12385;51.412;5.540;2022-07-23T07:00:20;18.20;99.90
24262;DHT22;12385;51.412;5.540;2022-07-23T07:02:46;18.30;99.90
24262;DHT22;12385;51.412;5.540;2022-07-23T07:05:11;18.30;99.90
24262;DHT22;12385;51.412;5.540;2022-07-23T07:07:37;18.30;99.90
24262;DHT22;12385;51.412;5.540;2022-07-23T07:10:03;18.30;99.90
24262;DHT22;12385;51.412;5.540;2022-07-23T07:12:29;18.40;99.90
24262;DHT22;12385;51.412;5.540;2022-07-23T07:14:54;18.40;99.90
24262;DHT22;12385;51.412;5.540;2022-07-23T07:17:20;18.40;99.90
24262;DHT22;12385;51.412;5.540;2022-07-23T07:19:46;18.40;99.90
24262;DHT22;12385;51.412;5.540;2022-07-23T07:22:11;18.40;99.90
24262;DHT22;12385;51.412;5.540;2022-07-23T07:24:38;18.50;99.90
24262;DHT22;12385;51.412;5.540;2022-07-23T07:27:03;18.50;99.90
24262;DHT22;12385;51.412;5.540;2022-07-23T07:29:29;18.60;99.90
24262;DHT22;12385;51.412;5.540;2022-07-23T07:31:55;18.70;99.90
24262;DHT22;12385;51.412;5.540;2022-07-23T07:34:22;18.80;99.90
24262;DHT22;12385;51.412;5.540;2022-07-23T07:36:48;18.90;99.90
24262;DHT22;12385;51.412;5.540;2022-07-23T07:39:13;19.00;99.90
24262;DHT22;12385;51.412;5.540;2022-07-23T07:41:39;19.10;99.90
24262;DHT22;12385;51.412;5.540;2022-07-23T07:44:05;19.10;99.90
24262;DHT22;12385;51.412;5.540;2022-07-23T07:46:32;19.20;99.90
24262;DHT22;12385;51.412;5.540;2022-07-23T07:48:57;19.20;99.90
24262;DHT22;12385;51.412;5.540;2022-07-23T07:51:23;19.20;99.90
24262;DHT22;12385;51.412;5.540;2022-07-23T07:53:48;19.20;99.90
24262;DHT22;12385;51.412;5.540;2022-07-23T07:56:14;19.30;99.90
24262;DHT22;12385;51.412;5.540;2022-07-23T07:58:39;19.30;99.90
24262;DHT22;12385;51.412;5.540;2022-07-23T08:01:06;19.30;99.90
24262;DHT22;12385;51.412;5.540;2022-07-23T08:03:32;19.30;99.90
24262;DHT22;12385;51.412;5.540;2022-07-23T08:05:57;19.40;99.90
24262;DHT22;12385;51.412;5.540;2022-07-23T08:08:23;19.40;99.90
24262;DHT22;12385;51.412;5.540;2022-07-23T08:10:50;19.50;99.90
24262;DHT22;12385;51.412;5.540;2022-07-23T08:13:16;19.50;99.90
24262;DHT22;12385;51.412;5.540;2022-07-23T08:15:43;19.60;99.90
24262;DHT22;12385;51.412;5.540;2022-07-23T08:18:09;19.60;99.90
24262;DHT22;12385;51.412;5.540;2022-07-23T08:20:35;19.70;99.90
24262;DHT22;12385;51.412;5.540;2022-07-23T08:23:04;19.70;99.90
24262;DHT22;12385;51.412;5.540;2022-07-23T08:25:33;19.70;99.90
24262;DHT22;12385;51.412;5.540;2022-07-23T08:28:01;19.80;99.90
24262;DHT22;12385;51.412;5.540;2022-07-23T08:30:28;19.80;99.90
24262;DHT22;12385;51.412;5.540;2022-07-23T08:33:01;19.90;99.90
24262;DHT22;12385;51.412;5.540;2022-07-23T08:38:00;20.00;99.90
24262;DHT22;12385;51.412;5.540;2022-07-23T08:40:27;20.00;99.90
24262;DHT22;12385;51.412;5.540;2022-07-23T08:42:54;20.10;99.90
24262;DHT22;12385;51.412;5.540;2022-07-23T08:45:22;20.10;99.90
24262;DHT22;12385;51.412;5.540;2022-07-23T08:47:56;20.20;99.90
24262;DHT22;12385;51.412;5.540;2022-07-23T08:50:23;20.30;99.90
24262;DHT22;12385;51.412;5.540;2022-07-23T08:52:50;20.30;99.90
24262;DHT22;12385;51.412;5.540;2022-07-23T08:55:22;20.40;99.90
24262;DHT22;12385;51.412;5.540;2022-07-23T08:57:51;20.50;99.90
24262;DHT22;12385;51.412;5.540;2022-07-23T09:00:18;20.60;99.90
24262;DHT22;12385;51.412;5.540;2022-07-23T09:02:45;20.70;99.90
24262;DHT22;12385;51.412;5.540;2022-07-23T09:05:12;20.80;99.90
24262;DHT22;12385;51.412;5.540;2022-07-23T09:08:08;20.90;99.90
24262;DHT22;12385;51.412;5.540;2022-07-23T09:13:35;21.00;99.90
24262;DHT22;12385;51.412;5.540;2022-07-23T09:26:41;21.30;99.90
24262;DHT22;12385;51.412;5.540;2022-07-23T09:29:24;21.30;99.90
24262;DHT22;12385;51.412;5.540;2022-07-23T09:31:56;21.30;99.90
24262;DHT22;12385;51.412;5.540;2022-07-23T09:34:32;21.30;99.90
24262;DHT22;12385;51.412;5.540;2022-07-23T09:37:10;21.40;99.80
24262;DHT22;12385;51.412;5.540;2022-07-23T09:39:36;21.50;99.50
24262;DHT22;12385;51.412;5.540;2022-07-23T09:42:25;21.60;99.40
24262;DHT22;12385;51.412;5.540;2022-07-23T09:44:52;21.80;99.30
24262;DHT22;12385;51.412;5.540;2022-07-23T09:47:19;21.90;99.40
24262;DHT22;12385;51.412;5.540;2022-07-23T09:50:03;22.10;99.00
24262;DHT22;12385;51.412;5.540;2022-07-23T09:52:34;22.20;98.50
24262;DHT22;12385;51.412;5.540;2022-07-23T09:55:03;22.20;98.20
24262;DHT22;12385;51.412;5.540;2022-07-23T09:57:31;22.30;97.60
24262;DHT22;12385;51.412;5.540;2022-07-23T10:00:00;22.40;97.40
24262;DHT22;12385;51.412;5.540;2022-07-23T10:02:27;22.40;97.10
24262;DHT22;12385;51.412;5.540;2022-07-23T10:04:54;22.40;96.80
24262;DHT22;12385;51.412;5.540;2022-07-23T10:07:23;22.50;96.20
24262;DHT22;12385;51.412;5.540;2022-07-23T10:09:52;22.50;96.10
24262;DHT22;12385;51.412;5.540;2022-07-23T10:12:19;22.50;95.90
24262;DHT22;12385;51.412;5.540;2022-07-23T10:15:04;22.60;95.30
24262;DHT22;12385;51.412;5.540;2022-07-23T10:17:31;22.60;95.10
24262;DHT22;12385;51.412;5.540;2022-07-23T10:19:57;22.70;95.40
24262;DHT22;12385;51.412;5.540;2022-07-23T10:22:33;22.80;94.80
24262;DHT22;12385;51.412;5.540;2022-07-23T10:27:47;23.00;94.10
24262;DHT22;12385;51.412;5.540;2022-07-23T10:36:09;23.00;92.40
24262;DHT22;12385;51.412;5.540;2022-07-23T10:38:51;23.20;92.50
24262;DHT22;12385;51.412;5.540;2022-07-23T10:41:39;23.30;92.20
24262;DHT22;12385;51.412;5.540;2022-07-23T10:46:34;23.50;92.30
24262;DHT22;12385;51.412;5.540;2022-07-23T10:49:29;23.60;92.10
24262;DHT22;12385;51.412;5.540;2022-07-23T10:54:51;23.70;91.20
24262;DHT22;12385;51.412;5.540;2022-07-23T10:57:23;23.60;91.00
24262;DHT22;12385;51.412;5.540;2022-07-23T11:02:34;23.70;90.50
24262;DHT22;12385;51.412;5.540;2022-07-23T11:05:06;23.80;90.60
24262;DHT22;12385;51.412;5.540;2022-07-23T11:07:34;23.90;90.20
24262;DHT22;12385;51.412;5.540;2022-07-23T11:09:59;24.00;89.50
24262;DHT22;12385;51.412;5.540;2022-07-23T11:17:26;24.60;87.70
24262;DHT22;12385;51.412;5.540;2022-07-23T11:25:14;25.00;85.50
24262;DHT22;12385;51.412;5.540;2022-07-23T11:27:54;25.00;85.60
24262;DHT22;12385;51.412;5.540;2022-07-23T11:33:37;25.20;84.10
24262;DHT22;12385;51.412;5.540;2022-07-23T11:35:46;25.30;86.30
24262;DHT22;12385;51.412;5.540;2022-07-23T11:38:18;25.30;83.00
24262;DHT22;12385;51.412;5.540;2022-07-23T11:40:55;25.30;81.60
24262;DHT22;12385;51.412;5.540;2022-07-23T11:43:23;25.40;81.20
24262;DHT22;12385;51.412;5.540;2022-07-23T11:45:56;25.70;80.50
24262;DHT22;12385;51.412;5.540;2022-07-23T11:48:27;25.90;79.70
24262;DHT22;12385;51.412;5.540;2022-07-23T11:50:56;26.00;78.20
24262;DHT22;12385;51.412;5.540;2022-07-23T11:53:29;26.10;77.00
24262;DHT22;12385;51.412;5.540;2022-07-23T11:56:06;26.10;76.00
24262;DHT22;12385;51.412;5.540;2022-07-23T11:58:32;26.10;75.60
24262;DHT22;12385;51.412;5.540;2022-07-23T12:00:58;26.10;75.00
24262;DHT22;12385;51.412;5.540;2022-07-23T12:03:23;26.10;74.50
24262;DHT22;12385;51.412;5.540;2022-07-23T12:05:49;26.20;74.60
24262;DHT22;12385;51.412;5.540;2022-07-23T12:08:21;26.10;73.70
24262;DHT22;12385;51.412;5.540;2022-07-23T12:10:46;26.30;74.30
24262;DHT22;12385;51.412;5.540;2022-07-23T12:13:15;26.60;73.50
24262;DHT22;12385;51.412;5.540;2022-07-23T12:15:44;26.90;72.00
24262;DHT22;12385;51.412;5.540;2022-07-23T12:18:13;27.20;71.10
24262;DHT22;12385;51.412;5.540;2022-07-23T12:20:43;27.40;69.80
24262;DHT22;12385;51.412;5.540;2022-07-23T12:23:11;27.60;68.50
24262;DHT22;12385;51.412;5.540;2022-07-23T12:25:39;27.80;67.10
24262;DHT22;12385;51.412;5.540;2022-07-23T12:28:27;28.00;65.50
24262;DHT22;12385;51.412;5.540;2022-07-23T12:30:55;28.00;65.90
24262;DHT22;12385;51.412;5.540;2022-07-23T12:33:30;28.10;64.30
24262;DHT22;12385;51.412;5.540;2022-07-23T12:35:58;28.20;63.50
24262;DHT22;12385;51.412;5.540;2022-07-23T12:38:25;28.30;62.00
24262;DHT22;12385;51.412;5.540;2022-07-23T12:40:59;28.50;62.00
24262;DHT22;12385;51.412;5.540;2022-07-23T12:48:24;28.60;61.10
24262;DHT22;12385;51.412;5.540;2022-07-23T12:50:56;28.80;61.70
24262;DHT22;12385;51.412;5.540;2022-07-23T12:53:31;28.90;61.20
24262;DHT22;12385;51.412;5.540;2022-07-23T12:56:07;28.90;60.40
24262;DHT22;12385;51.412;5.540;2022-07-23T12:58:50;29.10;60.80
24262;DHT22;12385;51.412;5.540;2022-07-23T13:01:22;29.10;60.50
24262;DHT22;12385;51.412;5.540;2022-07-23T13:06:29;28.90;58.90
24262;DHT22;12385;51.412;5.540;2022-07-23T13:08:55;28.80;58.00
24262;DHT22;12385;51.412;5.540;2022-07-23T13:11:21;28.70;57.50
24262;DHT22;12385;51.412;5.540;2022-07-23T13:13:47;28.50;57.80
24262;DHT22;12385;51.412;5.540;2022-07-23T13:16:12;28.30;57.80
24262;DHT22;12385;51.412;5.540;2022-07-23T13:18:38;28.30;59.20
24262;DHT22;12385;51.412;5.540;2022-07-23T13:21:04;28.20;59.20
24262;DHT22;12385;51.412;5.540;2022-07-23T13:23:29;28.10;58.80
24262;DHT22;12385;51.412;5.540;2022-07-23T13:25:55;28.30;59.40
24262;DHT22;12385;51.412;5.540;2022-07-23T13:28:22;28.90;58.00
24262;DHT22;12385;51.412;5.540;2022-07-23T13:30:49;29.60;55.80
24262;DHT22;12385;51.412;5.540;2022-07-23T13:33:19;30.20;56.00
24262;DHT22;12385;51.412;5.540;2022-07-23T13:35:46;30.90;55.40
24262;DHT22;12385;51.412;5.540;2022-07-23T13:38:12;31.60;53.20
24262;DHT22;12385;51.412;5.540;2022-07-23T13:40:40;32.30;51.30
24262;DHT22;12385;51.412;5.540;2022-07-23T13:43:08;32.50;50.00
24262;DHT22;12385;51.412;5.540;2022-07-23T13:45:34;32.30;50.70
24262;DHT22;12385;51.412;5.540;2022-07-23T13:48:00;32.50;50.00
24262;DHT22;12385;51.412;5.540;2022-07-23T13:50:26;32.60;48.00
24262;DHT22;12385;51.412;5.540;2022-07-23T13:52:51;32.50;47.20
24262;DHT22;12385;51.412;5.540;2022-07-23T13:55:17;32.40;46.80
24262;DHT22;12385;51.412;5.540;2022-07-23T13:57:43;32.20;47.50
24262;DHT22;12385;51.412;5.540;2022-07-23T14:00:09;32.10;48.10
24262;DHT22;12385;51.412;5.540;2022-07-23T14:02:37;32.20;47.00
24262;DHT22;12385;51.412;5.540;2022-07-23T14:05:08;32.50;46.80
24262;DHT22;12385;51.412;5.540;2022-07-23T14:07:36;32.90;45.30
24262;DHT22;12385;51.412;5.540;2022-07-23T14:10:04;33.10;44.70
24262;DHT22;12385;51.412;5.540;2022-07-23T14:12:31;33.40;44.40
24262;DHT22;12385;51.412;5.540;2022-07-23T14:14:56;33.20;44.10
24262;DHT22;12385;51.412;5.540;2022-07-23T14:17:22;32.90;44.40
24262;DHT22;12385;51.412;5.540;2022-07-23T14:19:48;32.90;45.30
24262;DHT22;12385;51.412;5.540;2022-07-23T14:22:14;32.60;44.50
24262;DHT22;12385;51.412;5.540;2022-07-23T14:24:39;32.20;44.60
24262;DHT22;12385;51.412;5.540;2022-07-23T14:27:05;32.00;46.10
24262;DHT22;12385;51.412;5.540;2022-07-23T14:29:31;32.00;45.80
24262;DHT22;12385;51.412;5.540;2022-07-23T14:31:57;32.00;45.90
24262;DHT22;12385;51.412;5.540;2022-07-23T14:34:23;32.00;46.60
24262;DHT22;12385;51.412;5.540;2022-07-23T14:36:50;32.00;46.10
24262;DHT22;12385;51.412;5.540;2022-07-23T14:39:16;31.80;45.20
24262;DHT22;12385;51.412;5.540;2022-07-23T14:41:41;31.60;45.90
24262;DHT22;12385;51.412;5.540;2022-07-23T14:44:07;31.40;47.20
24262;DHT22;12385;51.412;5.540;2022-07-23T14:46:33;31.20;46.90
24262;DHT22;12385;51.412;5.540;2022-07-23T14:48:58;31.10;47.50
24262;DHT22;12385;51.412;5.540;2022-07-23T14:51:24;31.20;47.20
24262;DHT22;12385;51.412;5.540;2022-07-23T14:53:50;31.50;46.70
24262;DHT22;12385;51.412;5.540;2022-07-23T14:56:15;31.90;46.10
24262;DHT22;12385;51.412;5.540;2022-07-23T14:58:41;32.30;45.70
24262;DHT22;12385;51.412;5.540;2022-07-23T15:01:07;32.60;44.10
24262;DHT22;12385;51.412;5.540;2022-07-23T15:03:33;32.70;44.10
24262;DHT22;12385;51.412;5.540;2022-07-23T15:05:59;32.50;43.90
24262;DHT22;12385;51.412;5.540;2022-07-23T15:08:24;32.80;44.10
24262;DHT22;12385;51.412;5.540;2022-07-23T15:10:50;33.30;43.80
24262;DHT22;12385;51.412;5.540;2022-07-23T15:13:16;33.90;43.40
24262;DHT22;12385;51.412;5.540;2022-07-23T15:15:42;34.50;42.50
24262;DHT22;12385;51.412;5.540;2022-07-23T15:18:08;35.20;40.40
24262;DHT22;12385;51.412;5.540;2022-07-23T15:20:34;35.20;39.20
24262;DHT22;12385;51.412;5.540;2022-07-23T15:23:00;35.40;38.70
24262;DHT22;12385;51.412;5.540;2022-07-23T15:25:26;35.80;39.40
24262;DHT22;12385;51.412;5.540;2022-07-23T15:27:51;36.20;39.00
24262;DHT22;12385;51.412;5.540;2022-07-23T15:30:17;36.50;37.80
24262;DHT22;12385;51.412;5.540;2022-07-23T15:32:42;36.80;37.40
24262;DHT22;12385;51.412;5.540;2022-07-23T15:35:08;36.70;37.90
24262;DHT22;12385;51.412;5.540;2022-07-23T15:37:34;36.50;38.20
24262;DHT22;12385;51.412;5.540;2022-07-23T15:40:01;36.30;37.40
24262;DHT22;12385;51.412;5.540;2022-07-23T15:42:30;36.10;37.80
24262;DHT22;12385;51.412;5.540;2022-07-23T15:44:55;36.20;38.60
24262;DHT22;12385;51.412;5.540;2022-07-23T15:47:22;36.10;37.80
24262;DHT22;12385;51.412;5.540;2022-07-23T15:49:48;35.90;37.50
24262;DHT22;12385;51.412;5.540;2022-07-23T15:52:13;35.70;38.60
24262;DHT22;12385;51.412;5.540;2022-07-23T15:54:40;35.70;38.40
24262;DHT22;12385;51.412;5.540;2022-07-23T15:57:06;35.60;38.80
24262;DHT22;12385;51.412;5.540;2022-07-23T15:59:32;35.50;39.30
24262;DHT22;12385;51.412;5.540;2022-07-23T16:01:57;35.50;39.00
24262;DHT22;12385;51.412;5.540;2022-07-23T16:04:24;35.60;37.90
24262;DHT22;12385;51.412;5.540;2022-07-23T16:06:50;35.80;37.30
24262;DHT22;12385;51.412;5.540;2022-07-23T16:09:16;35.90;37.70
24262;DHT22;12385;51.412;5.540;2022-07-23T16:11:42;36.10;38.30
24262;DHT22;12385;51.412;5.540;2022-07-23T16:14:07;36.10;38.30
24262;DHT22;12385;51.412;5.540;2022-07-23T16:16:34;36.10;37.80
24262;DHT22;12385;51.412;5.540;2022-07-23T16:19:00;36.40;38.20
24262;DHT22;12385;51.412;5.540;2022-07-23T16:21:26;36.60;36.80
24262;DHT22;12385;51.412;5.540;2022-07-23T16:23:51;36.40;37.70